Time;durP1;ratioP1;P1;durP2;ratioP2;P2;SDS_P1;SDS_P2;PMS_P1;PMS_P2;Temp;Humidity;BMP_temperature;BMP_pressure;BME280_temperature;BME280_humidity;BME280_pressure;Samples;Min_cycle;Max_cycle;Signal;HPM_P1;HPM_P2
2021/06/25 00:00:49;;;;;;;1999.90;999.90;;;7.90;99.90;;;;;;6066755;23;20152;-50
2021/06/25 00:03:16;;;;;;;1999.90;999.90;;;7.70;99.90;;;;;;6066267;23;20155;-50
2021/06/25 00:05:42;;;;;;;1999.90;999.90;;;7.70;99.90;;;;;;6066386;23;20152;-67
2021/06/25 00:08:09;;;;;;;1999.90;999.90;;;7.60;99.90;;;;;;6066459;23;20151;-66
2021/06/25 00:10:36;;;;;;;1999.90;999.90;;;7.60;99.90;;;;;;6066351;23;20174;-68
2021/06/25 00:13:03;;;;;;;1999.90;999.90;;;7.60;99.90;;;;;;6066367;23;20245;-59
2021/06/25 00:15:30;;;;;;;1999.90;999.90;;;7.50;99.90;;;;;;6066362;23;20465;-64
2021/06/25 00:18:01;;;;;;;1999.90;999.90;;;7.50;99.90;;;;;;6066362;23;20155;-48
2021/06/25 00:20:28;;;;;;;1999.90;999.90;;;7.40;99.90;;;;;;6066148;23;20596;-64
2021/06/25 00:22:56;;;;;;;1999.90;999.90;;;7.40;99.90;;;;;;6066190;23;20588;-52
2021/06/25 00:25:24;;;;;;;1999.90;999.90;;;7.40;99.90;;;;;;6065708;23;20204;-66
2021/06/25 00:27:51;;;;;;;1999.90;999.90;;;7.40;99.90;;;;;;6066928;23;20152;-67
2021/06/25 00:30:18;;;;;;;1999.90;999.90;;;7.30;99.90;;;;;;6066106;23;20148;-55
2021/06/25 00:32:48;;;;;;;1999.90;999.90;;;7.40;99.90;;;;;;6066134;23;20782;-52
2021/06/25 00:35:15;;;;;;;1999.90;999.90;;;7.40;99.90;;;;;;6066633;23;20153;-65
2021/06/25 00:37:43;;;;;;;1999.90;999.90;;;7.40;99.90;;;;;;6066003;23;20179;-68
2021/06/25 00:40:11;;;;;;;1999.90;999.90;;;7.50;99.90;;;;;;6066029;23;20183;-64
2021/06/25 00:42:38;;;;;;;1999.90;999.90;;;7.50;99.90;;;;;;6066644;23;20575;-68
2021/06/25 00:45:22;;;;;;;1999.90;999.90;;;7.40;99.90;;;;;;6065824;23;20202;-67
2021/06/25 00:47:51;;;;;;;1999.90;999.90;;;7.40;99.90;;;;;;6066184;23;20166;-67
2021/06/25 00:50:27;;;;;;;1999.90;999.90;;;7.40;99.90;;;;;;6066228;23;20156;-53
2021/06/25 00:52:56;;;;;;;1999.90;999.90;;;7.40;99.90;;;;;;6066171;23;20636;-59
2021/06/25 00:55:25;;;;;;;1999.90;999.90;;;7.40;99.90;;;;;;6066524;23;20144;-51
2021/06/25 00:57:52;;;;;;;1999.90;999.90;;;7.30;99.90;;;;;;6065935;23;20185;-58
2021/06/25 01:00:20;;;;;;;1999.90;999.90;;;7.40;99.90;;;;;;6065840;23;20158;-50
2021/06/25 01:02:47;;;;;;;1999.90;999.90;;;7.30;99.90;;;;;;6066473;23;20152;-49
2021/06/25 01:05:15;;;;;;;1999.90;999.90;;;7.40;99.90;;;;;;6065900;23;20252;-53
2021/06/25 01:07:44;;;;;;;1999.90;999.90;;;7.30;99.90;;;;;;6066010;23;20147;-66
2021/06/25 01:10:12;;;;;;;1999.90;999.90;;;7.30;99.90;;;;;;6066397;23;20155;-54
2021/06/25 01:12:43;;;;;;;1999.90;999.90;;;7.20;99.90;;;;;;6065564;23;20229;-60
2021/06/25 01:15:12;;;;;;;1999.90;999.90;;;7.30;99.90;;;;;;6065938;23;20217;-55
2021/06/25 01:17:41;;;;;;;1999.90;999.90;;;7.30;99.90;;;;;;6066172;23;20160;-50
2021/06/25 01:20:10;;;;;;;1999.90;999.90;;;7.30;99.90;;;;;;6066202;23;20657;-64
2021/06/25 01:22:40;;;;;;;1999.90;999.90;;;7.30;99.90;;;;;;6066404;23;20149;-49
2021/06/25 01:25:18;;;;;;;1999.90;999.90;;;7.30;99.90;;;;;;6065371;23;20207;-67
2021/06/25 01:27:48;;;;;;;1999.90;999.90;;;7.30;99.90;;;;;;6065700;23;20451;-63
2021/06/25 01:30:17;;;;;;;1999.90;999.90;;;7.30;99.90;;;;;;6066290;23;20279;-49
2021/06/25 01:32:45;;;;;;;1999.90;999.90;;;7.30;99.90;;;;;;6065734;23;20184;-48
2021/06/25 01:35:13;;;;;;;1999.90;999.90;;;7.30;99.90;;;;;;6065487;23;20478;-67
2021/06/25 01:37:41;;;;;;;1999.90;999.90;;;7.30;99.90;;;;;;6067741;23;20156;-49
2021/06/25 01:40:10;;;;;;;1999.90;999.90;;;7.30;99.90;;;;;;6067265;23;20151;-48
2021/06/25 01:42:39;;;;;;;1999.90;999.90;;;7.20;99.90;;;;;;6067667;23;20534;-67
2021/06/25 01:45:09;;;;;;;1999.90;999.90;;;7.10;99.90;;;;;;6067704;23;20145;-55
2021/06/25 01:47:37;;;;;;;1999.90;999.90;;;7.20;99.90;;;;;;6067452;23;20168;-52
2021/06/25 01:50:06;;;;;;;1999.90;999.90;;;7.20;99.90;;;;;;6067432;23;20159;-66
2021/06/25 01:52:33;;;;;;;1999.90;999.90;;;7.30;99.90;;;;;;6067231;23;20194;-48
2021/06/25 01:55:00;;;;;;;1999.90;999.90;;;7.20;99.90;;;;;;6067878;23;20275;-56
2021/06/25 01:57:27;;;;;;;1999.90;999.90;;;7.20;99.90;;;;;;6067656;23;20290;-50
2021/06/25 01:59:53;;;;;;;1999.90;999.90;;;7.10;99.90;;;;;;6067752;23;20155;-49
2021/06/25 02:02:20;;;;;;;1999.90;999.90;;;7.20;99.90;;;;;;6067427;23;20158;-68
2021/06/25 02:04:47;;;;;;;1999.90;999.90;;;7.10;99.90;;;;;;6067374;23;20179;-68
2021/06/25 02:07:14;;;;;;;1999.90;999.90;;;7.10;99.90;;;;;;6067421;23;20206;-49
2021/06/25 02:09:40;;;;;;;1999.90;999.90;;;7.10;99.90;;;;;;6067187;23;20148;-57
2021/06/25 02:12:08;;;;;;;1999.90;999.90;;;7.20;99.90;;;;;;6068005;23;20180;-69
2021/06/25 02:14:35;;;;;;;1999.90;999.90;;;7.10;99.90;;;;;;6066964;23;20247;-65
2021/06/25 02:17:02;;;;;;;1999.90;999.90;;;7.10;99.90;;;;;;6067290;23;20158;-62
2021/06/25 02:19:29;;;;;;;1999.90;999.90;;;7.20;99.90;;;;;;6067561;23;20152;-64
2021/06/25 02:21:56;;;;;;;1999.90;999.90;;;7.30;99.90;;;;;;6067108;23;20155;-49
2021/06/25 02:24:23;;;;;;;1999.90;999.90;;;7.20;99.90;;;;;;6067088;23;20629;-49
2021/06/25 02:26:49;;;;;;;1999.90;999.90;;;7.20;99.90;;;;;;6067512;23;20154;-49
2021/06/25 02:29:16;;;;;;;1999.90;999.90;;;7.10;99.90;;;;;;6066819;23;20155;-69
2021/06/25 02:31:43;;;;;;;1999.90;999.90;;;7.20;99.90;;;;;;6066909;23;20509;-68
2021/06/25 02:34:10;;;;;;;1999.90;999.90;;;7.20;99.90;;;;;;6067388;23;20584;-66
2021/06/25 02:36:36;;;;;;;1999.90;999.90;;;7.20;99.90;;;;;;6066766;23;20162;-55
2021/06/25 02:39:05;;;;;;;1999.90;999.90;;;7.20;99.90;;;;;;6067045;23;20151;-64
2021/06/25 02:41:32;;;;;;;1999.90;999.90;;;7.10;99.90;;;;;;6041791;23;20207;-68
2021/06/25 02:43:59;;;;;;;1999.90;999.90;;;7.00;99.90;;;;;;6066873;23;20180;-50
2021/06/25 02:46:25;;;;;;;1999.90;999.90;;;7.00;99.90;;;;;;6067398;23;20187;-48
2021/06/25 02:48:52;;;;;;;1999.90;999.90;;;7.00;99.90;;;;;;6041381;23;20167;-61
2021/06/25 02:51:19;;;;;;;1999.90;999.90;;;7.00;99.90;;;;;;6066789;23;20182;-67
2021/06/25 02:53:46;;;;;;;1999.90;999.90;;;6.90;99.90;;;;;;6067257;23;20159;-65
2021/06/25 02:56:12;;;;;;;1999.90;999.90;;;6.80;99.90;;;;;;6067078;23;20540;-52
2021/06/25 02:58:39;;;;;;;1999.90;999.90;;;6.80;99.90;;;;;;6066681;23;20371;-52
2021/06/25 03:01:06;;;;;;;1999.90;999.90;;;6.80;99.90;;;;;;6067245;23;20145;-52
2021/06/25 03:03:33;;;;;;;1999.90;999.90;;;6.80;99.90;;;;;;6041351;23;20156;-68
2021/06/25 03:05:59;;;;;;;1999.90;999.90;;;6.80;99.90;;;;;;6066668;23;20147;-48
2021/06/25 03:08:26;;;;;;;1999.90;999.90;;;6.80;99.90;;;;;;6067364;23;20180;-52
2021/06/25 03:10:53;;;;;;;1999.90;999.90;;;6.90;99.90;;;;;;6066744;23;20147;-62
2021/06/25 03:13:21;;;;;;;1999.90;999.90;;;6.90;99.90;;;;;;6067037;23;20222;-68
2021/06/25 03:15:49;;;;;;;1999.90;999.90;;;6.80;99.90;;;;;;6067148;23;20239;-57
2021/06/25 03:18:17;;;;;;;1999.90;999.90;;;6.90;99.90;;;;;;6066795;23;20210;-49
2021/06/25 03:20:45;;;;;;;1999.90;999.90;;;6.80;99.90;;;;;;6066940;23;20204;-64
2021/06/25 03:23:12;;;;;;;1999.90;999.90;;;6.90;99.90;;;;;;6066608;23;20538;-67
2021/06/25 03:25:39;;;;;;;1999.90;999.90;;;7.00;99.90;;;;;;6066314;23;20200;-65
2021/06/25 03:28:07;;;;;;;1999.90;999.90;;;7.00;99.90;;;;;;6066707;23;20237;-68
2021/06/25 03:30:35;;;;;;;1999.90;999.90;;;7.00;99.90;;;;;;6066890;23;20219;-57
2021/06/25 03:33:02;;;;;;;1999.90;999.90;;;7.00;99.90;;;;;;6066383;23;20183;-53
2021/06/25 03:35:30;;;;;;;1999.90;999.90;;;7.00;99.90;;;;;;6066930;23;20588;-48
2021/06/25 03:37:57;;;;;;;1999.90;999.90;;;6.90;99.90;;;;;;6066568;23;20152;-50
2021/06/25 03:40:26;;;;;;;1999.90;999.90;;;6.90;99.90;;;;;;6066523;23;20180;-55
2021/06/25 03:42:52;;;;;;;1999.90;999.90;;;6.90;99.90;;;;;;6067237;23;20151;-50
2021/06/25 03:45:19;;;;;;;1999.90;999.90;;;7.00;99.90;;;;;;6066205;23;20159;-49
2021/06/25 03:47:46;;;;;;;1999.90;999.90;;;6.90;99.90;;;;;;6066439;23;20161;-49
2021/06/25 03:50:13;;;;;;;1999.90;999.90;;;6.80;99.90;;;;;;6066976;23;20151;-51
2021/06/25 03:52:40;;;;;;;1999.90;999.90;;;6.80;99.90;;;;;;6040745;23;20192;-63
2021/06/25 03:55:10;;;;;;;1999.90;999.90;;;6.80;99.90;;;;;;6066219;23;20153;-68
2021/06/25 03:57:38;;;;;;;1999.90;999.90;;;6.80;99.90;;;;;;6066502;23;20274;-48
2021/06/25 04:00:08;;;;;;;1999.90;999.90;;;6.80;99.90;;;;;;6066209;23;20147;-67
2021/06/25 04:02:36;;;;;;;1999.90;999.90;;;6.80;99.90;;;;;;6066518;23;20147;-64
2021/06/25 04:05:05;;;;;;;1999.90;999.90;;;6.70;99.90;;;;;;6066495;23;20483;-68
2021/06/25 04:07:32;;;;;;;1999.90;999.90;;;6.70;99.90;;;;;;6066645;23;20475;-49
2021/06/25 04:09:59;;;;;;;1999.90;999.90;;;6.60;99.90;;;;;;6066309;23;20231;-63
2021/06/25 04:12:25;;;;;;;1999.90;999.90;;;6.70;99.90;;;;;;6066396;23;20191;-48
2021/06/25 04:14:52;;;;;;;1999.90;999.90;;;6.60;99.90;;;;;;6066238;23;20158;-47
2021/06/25 04:17:19;;;;;;;1999.90;999.90;;;6.70;99.90;;;;;;6066235;23;20153;-52
2021/06/25 04:19:46;;;;;;;1999.90;999.90;;;6.70;99.90;;;;;;6066270;23;20800;-53
2021/06/25 04:22:13;;;;;;;1999.90;999.90;;;6.80;99.90;;;;;;6066269;23;20152;-63
2021/06/25 04:24:40;;;;;;;1999.90;999.90;;;6.70;99.90;;;;;;6066513;23;20201;-52
2021/06/25 04:27:07;;;;;;;1999.90;999.90;;;6.70;99.90;;;;;;6065726;23;20158;-64
2021/06/25 04:29:34;;;;;;;1999.90;999.90;;;6.70;99.90;;;;;;6065915;23;20149;-63
2021/06/25 04:32:01;;;;;;;1999.90;999.90;;;6.80;99.90;;;;;;6066731;23;20263;-65
2021/06/25 04:34:28;;;;;;;1999.90;999.90;;;6.90;99.90;;;;;;6065504;23;20298;-51
2021/06/25 04:36:55;;;;;;;1999.90;999.90;;;6.90;99.90;;;;;;6066300;23;20159;-67
2021/06/25 04:39:22;;;;;;;1999.90;999.90;;;6.90;99.90;;;;;;6066385;23;20593;-61
2021/06/25 04:41:49;;;;;;;1999.90;999.90;;;6.90;99.90;;;;;;6065943;23;20171;-51
2021/06/25 04:44:17;;;;;;;1999.90;999.90;;;6.80;99.90;;;;;;6066361;23;20145;-65
2021/06/25 04:46:44;;;;;;;1999.90;999.90;;;6.80;99.90;;;;;;6065738;23;20191;-55
2021/06/25 04:49:11;;;;;;;1999.90;999.90;;;6.70;99.90;;;;;;6065676;23;20148;-60
2021/06/25 04:51:37;;;;;;;1999.90;999.90;;;6.70;99.90;;;;;;6065775;23;20178;-66
2021/06/25 04:54:04;;;;;;;1999.90;999.90;;;6.70;99.90;;;;;;6065895;23;20166;-65
2021/06/25 04:56:31;;;;;;;1999.90;999.90;;;6.70;99.90;;;;;;6065731;23;20622;-60
2021/06/25 04:58:58;;;;;;;1999.90;999.90;;;6.80;99.90;;;;;;6066022;23;20155;-51
2021/06/25 05:01:25;;;;;;;1999.90;999.90;;;6.80;99.90;;;;;;6066145;23;20152;-48
2021/06/25 05:03:51;;;;;;;1999.90;999.90;;;6.80;99.90;;;;;;6065803;23;20485;-69
2021/06/25 05:06:18;;;;;;;1999.90;999.90;;;6.70;99.90;;;;;;6066352;23;20155;-52
2021/06/25 05:08:45;;;;;;;1999.90;999.90;;;6.70;99.90;;;;;;6065726;23;20163;-48
2021/06/25 05:11:12;;;;;;;1999.90;999.90;;;6.60;99.90;;;;;;6040625;23;20635;-62
2021/06/25 05:13:38;;;;;;;1999.90;999.90;;;6.70;99.90;;;;;;6068003;23;20519;-47
2021/06/25 05:16:05;;;;;;;1999.90;999.90;;;6.70;99.90;;;;;;6067447;23;20149;-50
2021/06/25 05:18:32;;;;;;;1999.90;999.90;;;6.60;99.90;;;;;;6067646;23;20153;-48
2021/06/25 05:20:59;;;;;;;1999.90;999.90;;;6.70;99.90;;;;;;6067716;23;20596;-49
2021/06/25 05:23:26;;;;;;;1999.90;999.90;;;6.70;99.90;;;;;;6067242;23;20150;-56
2021/06/25 05:25:54;;;;;;;1999.90;999.90;;;6.60;99.90;;;;;;6067956;23;20146;-55
2021/06/25 05:28:21;;;;;;;1999.90;999.90;;;6.60;99.90;;;;;;6067634;23;20162;-57
2021/06/25 05:30:49;;;;;;;1999.90;999.90;;;6.60;99.90;;;;;;6067454;23;20157;-49
2021/06/25 05:33:16;;;;;;;1999.90;999.90;;;6.60;99.90;;;;;;6067353;23;20690;-53
2021/06/25 05:35:43;;;;;;;1999.90;999.90;;;6.60;99.90;;;;;;6067581;23;20151;-49
2021/06/25 05:38:14;;;;;;;1999.90;999.90;;;6.60;99.90;;;;;;6067270;23;20186;-51
2021/06/25 05:40:42;;;;;;;1999.90;999.90;;;6.60;99.90;;;;;;6067906;23;20483;-60
2021/06/25 05:43:09;;;;;;;1999.90;999.90;;;6.50;99.90;;;;;;6067213;23;20523;-64
2021/06/25 05:45:37;;;;;;;1999.90;999.90;;;6.40;99.90;;;;;;6066769;23;20604;-54
2021/06/25 05:48:05;;;;;;;1999.90;999.90;;;6.40;99.90;;;;;;6067490;23;20591;-53
2021/06/25 05:50:32;;;;;;;1999.90;999.90;;;6.40;99.90;;;;;;6067028;23;20603;-53
2021/06/25 05:52:59;;;;;;;1999.90;999.90;;;6.40;99.90;;;;;;6066929;23;20187;-56
2021/06/25 05:55:26;;;;;;;1999.90;999.90;;;6.40;99.90;;;;;;6067445;23;20461;-51
2021/06/25 05:57:53;;;;;;;1999.90;999.90;;;6.40;99.90;;;;;;6066838;23;20163;-50
2021/06/25 06:00:20;;;;;;;1999.90;999.90;;;6.40;99.90;;;;;;6066906;23;20486;-45
2021/06/25 06:02:47;;;;;;;1999.90;999.90;;;6.40;99.90;;;;;;6067389;23;20153;-45
2021/06/25 06:05:14;;;;;;;1999.90;999.90;;;6.40;99.90;;;;;;6066740;23;20206;-44
2021/06/25 06:07:41;;;;;;;1999.90;999.90;;;6.40;99.90;;;;;;6067192;23;20463;-40
2021/06/25 06:10:09;;;;;;;1999.90;999.90;;;6.80;99.90;;;;;;6067026;23;20583;-46
2021/06/25 06:12:37;;;;;;;1999.90;999.90;;;7.20;99.90;;;;;;6066640;23;20215;-46
2021/06/25 06:15:05;;;;;;;1999.90;999.90;;;7.10;99.90;;;;;;6067103;23;20235;-47
2021/06/25 06:17:32;;;;;;;1999.90;999.90;;;7.00;99.90;;;;;;6066856;23;20231;-48
2021/06/25 06:19:58;;;;;;;1999.90;999.90;;;7.00;99.90;;;;;;6066602;23;20483;-41
2021/06/25 06:35:57;;;;;;;1999.90;999.90;;;10.20;99.90;;;;;;6066224;23;20516;-50
2021/06/25 06:38:26;;;;;;;1999.90;999.90;;;10.30;99.90;;;;;;6066220;23;20159;-51
2021/06/25 06:40:53;;;;;;;1999.90;999.90;;;10.30;99.90;;;;;;6065876;23;20333;-48
2021/06/25 06:43:20;;;;;;;1999.90;999.90;;;10.30;99.90;;;;;;6065757;23;20160;-46
2021/06/25 06:45:47;;;;;;;1999.90;999.90;;;10.00;99.90;;;;;;6066378;23;20176;-45
2021/06/25 06:48:14;;;;;;;1999.90;999.90;;;9.80;99.90;;;;;;6065801;23;20152;-47
2021/06/25 06:50:41;;;;;;;1999.90;999.90;;;9.20;99.90;;;;;;6066566;23;20172;-50
2021/06/25 06:53:08;;;;;;;1999.90;999.90;;;9.00;99.90;;;;;;6065732;23;20653;-46
2021/06/25 06:55:42;;;;;;;1999.90;999.90;;;9.10;99.90;;;;;;6065992;23;20145;-49
2021/06/25 06:58:11;;;;;;;1999.90;999.90;;;9.00;99.90;;;;;;6040059;23;20230;-49
2021/06/25 07:00:38;;;;;;;1999.90;999.90;;;8.90;99.90;;;;;;6065689;23;20170;-52
2021/06/25 07:03:05;;;;;;;1999.90;999.90;;;9.00;99.90;;;;;;6065550;23;20159;-47
2021/06/25 07:05:32;;;;;;;1999.90;999.90;;;9.30;99.90;;;;;;6066056;23;20243;-44
2021/06/25 07:07:59;;;;;;;1999.90;999.90;;;9.30;99.90;;;;;;6065637;23;20667;-47
2021/06/25 07:10:25;;;;;;;1999.90;999.90;;;9.50;99.90;;;;;;6065599;23;20153;-50
2021/06/25 07:12:52;;;;;;;1999.90;999.90;;;9.60;99.90;;;;;;6066089;23;20192;-46
2021/06/25 07:15:19;;;;;;;1999.90;999.90;;;9.70;99.90;;;;;;6065767;23;20148;-51
2021/06/25 07:17:46;;;;;;;1999.90;999.90;;;9.70;99.90;;;;;;6066200;23;20239;-54
2021/06/25 07:20:13;;;;;;;1999.90;999.90;;;10.30;99.90;;;;;;6066142;23;20456;-60
2021/06/25 07:22:40;;;;;;;1999.90;999.90;;;11.30;99.90;;;;;;6065497;23;20208;-49
2021/06/25 07:25:07;;;;;;;1999.90;999.90;;;11.90;99.90;;;;;;6065370;23;20188;-47
2021/06/25 07:27:36;;;;;;;1999.90;999.90;;;12.30;99.90;;;;;;6065437;23;20152;-48
2021/06/25 07:30:05;;;;;;;1999.90;999.90;;;12.70;99.90;;;;;;6065560;23;20183;-48
2021/06/25 07:32:32;;;;;;;1999.90;999.90;;;13.00;99.90;;;;;;6065697;23;20212;-48
2021/06/25 07:34:59;;;;;;;1999.90;999.90;;;13.00;99.90;;;;;;6065520;23;20145;-48
2021/06/25 07:37:26;;;;;;;1999.90;999.90;;;13.10;99.90;;;;;;6065699;23;20183;-56
2021/06/25 07:39:53;;;;;;;1999.90;999.90;;;13.10;99.90;;;;;;6066575;23;20149;-49
2021/06/25 07:42:21;;;;;;;1999.90;999.90;;;13.20;99.90;;;;;;6065250;23;20588;-50
2021/06/25 07:44:52;;;;;;;1999.90;999.90;;;13.20;99.90;;;;;;6064952;23;20487;-50
2021/06/25 07:47:19;;;;;;;1999.90;999.90;;;13.20;99.90;;;;;;6066001;23;20148;-49
2021/06/25 07:49:46;;;;;;;1999.90;999.90;;;13.30;99.90;;;;;;6065352;23;20152;-52
2021/06/25 07:52:12;;;;;;;1999.90;999.90;;;13.50;99.90;;;;;;6065571;23;20231;-49
2021/06/25 07:54:39;;;;;;;1999.90;999.90;;;13.60;99.90;;;;;;6065824;23;20201;-48
2021/06/25 07:57:06;;;;;;;1999.90;999.90;;;13.60;99.90;;;;;;6065080;23;20204;-48
2021/06/25 07:59:33;;;;;;;1999.90;999.90;;;13.60;99.90;;;;;;6065234;23;20148;-49
2021/06/25 08:02:00;;;;;;;1999.90;999.90;;;13.60;99.90;;;;;;6065468;23;20152;-51
2021/06/25 08:04:29;;;;;;;1999.90;999.90;;;13.40;99.90;;;;;;6065162;23;20260;-50
2021/06/25 08:06:56;;;;;;;1999.90;999.90;;;13.50;99.90;;;;;;6065083;23;20487;-54
2021/06/25 08:09:24;;;;;;;1999.90;999.90;;;13.50;99.90;;;;;;6063949;23;20151;-50
2021/06/25 08:11:51;;;;;;;1999.90;999.90;;;13.50;99.90;;;;;;6064800;23;20228;-52
2021/06/25 08:14:18;;;;;;;1999.90;999.90;;;13.40;99.90;;;;;;6065031;23;20264;-50
2021/06/25 08:16:45;;;;;;;1999.90;999.90;;;13.40;99.90;;;;;;6064321;23;20156;-51
2021/06/25 08:19:11;;;;;;;1999.90;999.90;;;13.30;99.90;;;;;;6065034;23;20195;-44
2021/06/25 08:21:39;;;;;;;1999.90;999.90;;;13.30;99.90;;;;;;6065735;23;20149;-52
2021/06/25 08:24:06;;;;;;;1999.90;999.90;;;13.30;99.90;;;;;;6064702;23;20263;-46
2021/06/25 08:26:33;;;;;;;1999.90;999.90;;;13.30;99.90;;;;;;6065241;23;20180;-47
2021/06/25 08:28:59;;;;;;;1999.90;999.90;;;13.90;99.90;;;;;;6066134;23;20145;-42
2021/06/25 08:31:26;;;;;;;1999.90;999.90;;;13.90;99.90;;;;;;6065393;23;20185;-42
2021/06/25 08:33:53;;;;;;;1999.90;999.90;;;13.70;99.90;;;;;;6065383;23;20148;-43
2021/06/25 08:36:20;;;;;;;1999.90;999.90;;;13.30;99.90;;;;;;6065838;23;20155;-47
2021/06/25 08:38:46;;;;;;;1999.90;999.90;;;13.20;99.90;;;;;;6039661;23;20235;-47
2021/06/25 08:41:13;;;;;;;1999.90;999.90;;;13.20;99.90;;;;;;6065207;23;20148;-51
2021/06/25 08:43:40;;;;;;;1999.90;999.90;;;13.00;99.90;;;;;;6065949;23;20201;-46
2021/06/25 08:46:09;;;;;;;1999.90;999.90;;;12.80;99.90;;;;;;6066688;23;20151;-47
2021/06/25 08:48:38;;;;;;;1999.90;999.90;;;12.80;99.90;;;;;;6067415;23;20176;-49
2021/06/25 08:51:07;;;;;;;1999.90;999.90;;;12.90;99.90;;;;;;6067637;23;20156;-55
2021/06/25 08:53:34;;;;;;;1999.90;999.90;;;13.40;99.90;;;;;;6066600;23;20168;-48
2021/06/25 08:56:01;;;;;;;1999.90;999.90;;;13.30;99.90;;;;;;6067517;23;20145;-45
2021/06/25 08:58:27;;;;;;;1999.90;999.90;;;13.10;99.90;;;;;;6067517;23;20401;-50
2021/06/25 09:00:55;;;;;;;1999.90;999.90;;;12.60;99.90;;;;;;6067446;23;20178;-49
2021/06/25 09:03:24;;;;;;;1999.90;999.90;;;12.40;99.90;;;;;;6067167;23;20235;-53
2021/06/25 09:05:52;;;;;;;1999.90;999.90;;;12.20;99.90;;;;;;6067407;23;20159;-49
2021/06/25 09:08:29;;;;;;;1999.90;999.90;;;12.00;99.90;;;;;;6067366;23;20153;-57
2021/06/25 09:10:59;;;;;;;1999.90;999.90;;;12.00;99.90;;;;;;6067815;23;20140;-50
2021/06/25 09:13:37;;;;;;;1999.90;999.90;;;12.20;99.90;;;;;;6067374;23;20607;-55
2021/06/25 09:16:24;;;;;;;1999.90;999.90;;;12.30;99.90;;;;;;6067302;23;20171;-48
2021/06/25 09:18:58;;;;;;;1999.90;999.90;;;12.30;99.90;;;;;;6067655;23;20141;-49
2021/06/25 09:21:26;;;;;;;1999.90;999.90;;;12.20;99.90;;;;;;6067043;23;20148;-48
2021/06/25 09:23:53;;;;;;;1999.90;999.90;;;12.30;99.90;;;;;;6067129;23;20181;-49
2021/06/25 09:26:21;;;;;;;1999.90;999.90;;;12.40;99.90;;;;;;6041888;23;20216;-54
2021/06/25 09:28:51;;;;;;;1999.90;999.90;;;12.40;99.90;;;;;;6067268;23;20145;-51
2021/06/25 09:31:24;;;;;;;1999.90;999.90;;;12.50;99.90;;;;;;6067167;23;20568;-53
2021/06/25 09:33:55;;;;;;;1999.90;999.90;;;12.60;99.90;;;;;;6067418;23;20553;-52
2021/06/25 09:36:24;;;;;;;1999.90;999.90;;;12.70;99.90;;;;;;6067325;23;20140;-48
2021/06/25 09:39:03;;;;;;;1999.90;999.90;;;12.70;99.90;;;;;;6067260;23;20152;-49
2021/06/25 09:41:30;;;;;;;1999.90;999.90;;;12.70;99.90;;;;;;6067133;23;20148;-47
2021/06/25 09:44:06;;;;;;;1999.90;999.90;;;12.70;99.90;;;;;;6066839;23;20298;-48
2021/06/25 09:46:43;;;;;;;1999.90;999.90;;;12.80;99.90;;;;;;6066999;23;20179;-44
2021/06/25 09:49:12;;;;;;;1999.90;999.90;;;13.80;99.90;;;;;;6066890;23;20168;-58
2021/06/25 09:52:00;;;;;;;1999.90;999.90;;;13.60;99.90;;;;;;6067221;23;20177;-47
2021/06/25 09:54:28;;;;;;;1999.90;999.90;;;13.10;99.90;;;;;;6067058;23;20164;-46
2021/06/25 09:57:09;;;;;;;1999.90;999.90;;;12.80;99.90;;;;;;6066778;23;20607;-45
2021/06/25 10:02:25;;;;;;;1999.90;999.90;;;12.60;99.90;;;;;;6066178;23;20630;-51
2021/06/25 10:05:13;;;;;;;1999.90;999.90;;;12.50;99.90;;;;;;6066402;23;20159;-46
2021/06/25 10:07:40;;;;;;;1999.90;999.90;;;12.40;99.90;;;;;;6067311;23;20149;-45
2021/06/25 10:10:12;;;;;;;1999.90;999.90;;;12.30;99.90;;;;;;6066624;23;20663;-47
2021/06/25 10:12:43;;;;;;;1999.90;999.90;;;12.20;99.90;;;;;;6066312;23;20227;-45
2021/06/25 10:15:11;;;;;;;1999.90;999.90;;;12.20;99.90;;;;;;6066269;23;20592;-41
2021/06/25 10:17:38;;;;;;;1999.90;999.90;;;12.10;99.90;;;;;;6066348;23;20148;-43
2021/06/25 10:20:09;;;;;;;1999.90;999.90;;;12.00;99.90;;;;;;6066682;23;20175;-44
2021/06/25 10:22:37;;;;;;;1999.90;999.90;;;12.80;99.90;;;;;;6066653;23;20186;-49
2021/06/25 10:25:07;;;;;;;1999.90;999.90;;;12.60;99.90;;;;;;6066462;23;20283;-44
2021/06/25 10:27:35;;;;;;;1999.90;999.90;;;12.30;99.90;;;;;;6066260;23;20223;-44
2021/06/25 10:30:04;;;;;;;1999.90;999.90;;;12.20;99.90;;;;;;6066248;23;20156;-42
2021/06/25 10:32:31;;;;;;;1999.90;999.90;;;12.40;99.90;;;;;;6066089;23;20558;-44
2021/06/25 10:34:58;;;;;;;1999.90;999.90;;;12.30;99.90;;;;;;6066341;23;20229;-46
2021/06/25 10:37:28;;;;;;;1999.90;999.90;;;12.20;99.90;;;;;;6065717;23;20152;-43
2021/06/25 10:39:55;;;;;;;1999.90;999.90;;;12.20;99.90;;;;;;6065998;23;20156;-44
2021/06/25 10:42:40;;;;;;;1999.90;999.90;;;12.30;99.90;;;;;;6066510;23;20729;-44
2021/06/25 10:45:08;;;;;;;1999.90;999.90;;;12.30;99.90;;;;;;6066030;23;20144;-44
2021/06/25 10:47:34;;;;;;;1999.90;999.90;;;12.30;99.90;;;;;;6066374;23;20164;-53
2021/06/25 10:50:02;;;;;;;1999.90;999.90;;;12.50;99.90;;;;;;6066053;23;20180;-44
2021/06/25 10:52:31;;;;;;;1999.90;999.90;;;12.30;99.90;;;;;;6065684;23;20279;-52
2021/06/25 10:55:05;;;;;;;1999.90;999.90;;;12.30;99.90;;;;;;6066589;23;20179;-42
2021/06/25 10:57:34;;;;;;;1999.90;999.90;;;12.40;99.90;;;;;;6065999;23;20143;-45
2021/06/25 11:00:03;;;;;;;1999.90;999.90;;;12.60;99.90;;;;;;6065824;23;20145;-45
2021/06/25 11:02:47;;;;;;;1999.90;999.90;;;12.80;99.90;;;;;;6066395;23;20152;-46
2021/06/25 11:05:29;;;;;;;1999.90;999.90;;;12.40;99.90;;;;;;6066071;23;20729;-43
2021/06/25 11:08:03;;;;;;;1999.90;999.90;;;12.40;99.90;;;;;;6065784;23;20181;-61
2021/06/25 11:10:36;;;;;;;1999.90;999.90;;;12.30;99.90;;;;;;6066704;23;20490;-45
2021/06/25 11:13:21;;;;;;;1999.90;999.90;;;12.60;99.90;;;;;;6066016;23;20212;-49
2021/06/25 11:15:50;;;;;;;1999.90;999.90;;;12.30;99.90;;;;;;6065652;23;20576;-48
2021/06/25 11:18:22;;;;;;;1999.90;999.90;;;12.20;99.90;;;;;;6066326;23;20164;-61
2021/06/25 11:21:03;;;;;;;1999.90;999.90;;;12.20;99.90;;;;;;6065756;23;20569;-52
2021/06/25 11:23:40;;;;;;;1999.90;999.90;;;13.00;99.90;;;;;;6066582;23;20553;-46
2021/06/25 11:26:15;;;;;;;1999.90;999.90;;;12.60;99.90;;;;;;6066294;23;20152;-46
2021/06/25 11:28:52;;;;;;;1999.90;999.90;;;12.40;99.90;;;;;;6066051;23;20143;-50
2021/06/25 11:31:20;;;;;;;1999.90;999.90;;;12.30;99.90;;;;;;6066223;23;20217;-45
2021/06/25 11:33:50;;;;;;;1999.90;999.90;;;12.20;99.90;;;;;;6066119;23;20153;-45
2021/06/25 11:36:21;;;;;;;1999.90;999.90;;;12.20;99.90;;;;;;6065861;23;20156;-45
2021/06/25 11:38:54;;;;;;;1999.90;999.90;;;12.10;99.90;;;;;;6066116;23;20160;-47
2021/06/25 11:41:34;;;;;;;1999.90;999.90;;;12.10;99.90;;;;;;6065828;23;20296;-51
2021/06/25 11:44:10;;;;;;;1999.90;999.90;;;12.10;99.90;;;;;;6065520;23;20164;-61
2021/06/25 11:46:37;;;;;;;1999.90;999.90;;;12.20;99.90;;;;;;6066543;23;20179;-47
2021/06/25 11:49:05;;;;;;;1999.90;999.90;;;12.60;99.90;;;;;;6066531;23;20215;-46
2021/06/25 11:51:40;;;;;;;1999.90;999.90;;;12.60;99.90;;;;;;6065823;23;20232;-48
2021/06/25 11:54:09;;;;;;;1999.90;999.90;;;12.50;99.90;;;;;;6066297;23;20144;-47
2021/06/25 11:56:37;;;;;;;1999.90;999.90;;;12.40;99.90;;;;;;6065470;23;20156;-46
2021/06/25 11:59:09;;;;;;;1999.90;999.90;;;12.40;99.90;;;;;;6066945;23;20476;-48
2021/06/25 12:01:56;;;;;;;1999.90;999.90;;;13.20;99.90;;;;;;6066800;23;20161;-59
2021/06/25 12:04:34;;;;;;;1999.90;999.90;;;13.70;99.90;;;;;;6041356;23;20461;-55
2021/06/25 12:07:02;;;;;;;1999.90;999.90;;;13.20;99.90;;;;;;6066737;23;20196;-50
2021/06/25 12:09:53;;;;;;;1999.90;999.90;;;12.90;99.90;;;;;;6066860;23;20160;-49
2021/06/25 12:12:21;;;;;;;1999.90;999.90;;;12.80;99.90;;;;;;6065888;23;20237;-50
2021/06/25 12:15:11;;;;;;;1999.90;999.90;;;12.70;99.90;;;;;;6066726;23;20144;-47
2021/06/25 12:17:48;;;;;;;1999.90;999.90;;;12.60;99.90;;;;;;6065961;23;20149;-52
2021/06/25 12:20:28;;;;;;;1999.90;999.90;;;12.60;99.90;;;;;;6066148;23;20140;-57
2021/06/25 12:23:06;;;;;;;1999.90;999.90;;;12.70;99.90;;;;;;6066620;23;20146;-61
2021/06/25 12:25:43;;;;;;;1999.90;999.90;;;12.70;99.90;;;;;;6066166;23;20188;-60
2021/06/25 12:28:21;;;;;;;1999.90;999.90;;;12.70;99.90;;;;;;6066555;23;20151;-53